createdAt,value
2022-12-29T00:00:17.200Z,4.80
2022-12-29T00:02:44.835Z,4.90
2022-12-29T00:05:11.928Z,4.90
2022-12-29T00:07:38.804Z,4.80
2022-12-29T00:10:06.319Z,4.80
2022-12-29T00:12:53.194Z,4.80
2022-12-29T00:15:38.523Z,4.70
2022-12-29T00:18:11.348Z,4.70
2022-12-29T00:21:03.081Z,4.80
2022-12-29T00:23:49.367Z,4.60
2022-12-29T00:26:36.304Z,4.40
2022-12-29T00:29:23.093Z,4.40
2022-12-29T00:32:09.283Z,4.30
2022-12-29T00:34:57.155Z,4.60
2022-12-29T00:37:44.268Z,4.50
2022-12-29T00:40:31.884Z,4.60
2022-12-29T00:43:17.625Z,4.90
2022-12-29T00:45:45.540Z,4.90
2022-12-29T00:48:12.462Z,5.00
2022-12-29T00:50:41.383Z,5.10
2022-12-29T00:53:10.499Z,5.10
2022-12-29T00:55:38.764Z,5.30
2022-12-29T00:58:05.721Z,5.40
2022-12-29T01:00:32.766Z,5.50
2022-12-29T01:02:59.852Z,5.70
2022-12-29T01:05:26.734Z,5.70
2022-12-29T01:07:53.728Z,5.80
2022-12-29T01:10:20.573Z,5.90
2022-12-29T01:12:48.311Z,5.80
2022-12-29T01:15:16.011Z,5.90
2022-12-29T01:17:43.184Z,6.00
2022-12-29T01:20:11.728Z,6.00
2022-12-29T01:22:38.770Z,6.10
2022-12-29T01:25:06.701Z,6.20
2022-12-29T01:27:34.026Z,6.20
2022-12-29T01:30:05.927Z,6.20
2022-12-29T01:32:34.829Z,6.20
2022-12-29T01:35:02.052Z,6.20
2022-12-29T01:37:29.036Z,6.10
2022-12-29T01:39:56.287Z,6.10
2022-12-29T01:42:27.012Z,6.00
2022-12-29T01:45:02.342Z,6.30
2022-12-29T01:48:07.727Z,6.30
2022-12-29T01:50:42.286Z,6.20
2022-12-29T01:53:32.405Z,6.20
2022-12-29T01:56:04.427Z,6.30
2022-12-29T01:58:38.891Z,6.20
2022-12-29T02:01:08.465Z,6.30
2022-12-29T02:03:37.263Z,6.40
2022-12-29T02:06:09.524Z,6.20
2022-12-29T02:08:39.816Z,6.30
2022-12-29T02:11:07.944Z,6.10
2022-12-29T02:13:35.239Z,6.00
2022-12-29T02:16:27.910Z,6.00
2022-12-29T02:19:21.824Z,6.10
2022-12-29T02:22:09.312Z,6.20
2022-12-29T02:25:03.988Z,6.20
2022-12-29T02:28:05.339Z,6.30
2022-12-29T02:30:56.215Z,6.20
2022-12-29T02:33:37.299Z,6.20
2022-12-29T02:36:20.682Z,6.10
2022-12-29T02:39:06.248Z,6.20
2022-12-29T02:41:50.366Z,6.10
2022-12-29T02:44:38.355Z,6.10
2022-12-29T02:47:08.662Z,6.20
2022-12-29T02:49:46.818Z,6.10
2022-12-29T02:52:21.574Z,6.10
2022-12-29T02:54:50.139Z,6.10
2022-12-29T02:57:31.339Z,6.10
2022-12-29T03:00:04.525Z,6.10
2022-12-29T03:02:43.769Z,6.00
2022-12-29T03:05:19.865Z,5.90
2022-12-29T03:07:55.618Z,6.00
2022-12-29T03:11:05.328Z,6.20
2022-12-29T03:13:54.876Z,6.20
2022-12-29T03:16:34.030Z,6.10
2022-12-29T03:19:19.102Z,6.20
2022-12-29T03:22:27.688Z,6.20
2022-12-29T03:25:23.151Z,6.20
2022-12-29T03:28:07.573Z,6.10
2022-12-29T03:30:42.826Z,6.10
2022-12-29T03:33:15.783Z,6.10
2022-12-29T03:35:45.096Z,6.10
2022-12-29T03:38:28.595Z,6.00
2022-12-29T03:40:59.636Z,6.00
2022-12-29T03:43:31.208Z,6.10
2022-12-29T03:45:58.125Z,6.00
2022-12-29T03:48:27.197Z,6.00
2022-12-29T03:50:56.058Z,6.00
2022-12-29T03:53:23.569Z,6.00
2022-12-29T03:55:50.716Z,5.90
2022-12-29T03:58:17.608Z,5.90
2022-12-29T04:01:18.206Z,5.90
2022-12-29T04:03:45.523Z,5.80
2022-12-29T04:06:13.073Z,5.80
2022-12-29T04:08:46.717Z,5.90
2022-12-29T04:11:13.603Z,5.90
2022-12-29T04:13:41.909Z,5.90
2022-12-29T04:16:13.344Z,5.90
2022-12-29T04:18:40.423Z,5.90
2022-12-29T04:21:09.941Z,5.90
2022-12-29T04:23:41.943Z,5.90
2022-12-29T04:26:10.953Z,5.90
2022-12-29T04:28:49.462Z,5.80
2022-12-29T04:31:36.476Z,5.90
2022-12-29T04:34:07.399Z,5.90
2022-12-29T04:36:34.165Z,6.00
2022-12-29T04:39:01.864Z,6.00
2022-12-29T04:41:29.024Z,6.10
2022-12-29T04:44:01.085Z,6.30
2022-12-29T04:47:06.262Z,6.20
2022-12-29T04:49:49.056Z,6.40
2022-12-29T04:52:34.918Z,6.30
2022-12-29T04:55:03.429Z,6.40
2022-12-29T04:57:32.789Z,6.40
2022-12-29T05:00:01.402Z,6.30
2022-12-29T05:02:29.706Z,6.50
2022-12-29T05:04:57.836Z,6.40
2022-12-29T05:07:26.048Z,6.30
2022-12-29T05:09:53.974Z,6.30
2022-12-29T05:12:20.872Z,6.30
2022-12-29T05:14:58.522Z,6.30
2022-12-29T05:17:25.632Z,6.20
2022-12-29T05:19:53.144Z,6.10
2022-12-29T05:22:20.541Z,6.10
2022-12-29T05:24:50.219Z,6.20
2022-12-29T05:27:21.807Z,6.20
2022-12-29T05:30:10.111Z,6.20
2022-12-29T05:32:40.049Z,6.30
2022-12-29T05:35:08.353Z,6.40
2022-12-29T05:37:38.866Z,6.40
2022-12-29T05:40:07.211Z,6.40
2022-12-29T05:42:35.077Z,6.50
2022-12-29T05:45:15.256Z,6.60
2022-12-29T05:47:53.758Z,6.70
2022-12-29T05:50:39.855Z,6.70
2022-12-29T05:53:12.125Z,6.70
2022-12-29T05:55:45.037Z,6.70
2022-12-29T05:58:14.488Z,6.50
2022-12-29T06:00:41.770Z,6.40
2022-12-29T06:03:10.555Z,6.30
2022-12-29T06:05:37.892Z,6.30
2022-12-29T06:08:05.074Z,6.20
2022-12-29T06:10:35.059Z,6.10
2022-12-29T06:13:08.924Z,6.10
2022-12-29T06:15:37.846Z,6.20
2022-12-29T06:18:07.655Z,6.20
2022-12-29T06:20:35.232Z,6.10
2022-12-29T06:23:04.891Z,6.20
2022-12-29T06:25:34.612Z,6.30
2022-12-29T06:28:03.539Z,6.20
2022-12-29T06:30:33.333Z,6.20
2022-12-29T06:33:05.302Z,6.20
2022-12-29T06:35:34.974Z,6.20
2022-12-29T06:38:04.251Z,6.20
2022-12-29T06:40:31.353Z,6.20
2022-12-29T06:43:12.511Z,6.10
2022-12-29T06:46:01.153Z,6.20
2022-12-29T06:48:27.958Z,6.10
2022-12-29T06:50:59.280Z,6.20
2022-12-29T06:53:26.798Z,6.20
2022-12-29T06:55:53.682Z,6.20
2022-12-29T06:58:20.509Z,6.30
2022-12-29T07:00:47.845Z,6.30
2022-12-29T07:03:14.654Z,6.30
2022-12-29T07:05:41.648Z,6.30
2022-12-29T07:08:10.814Z,6.30
2022-12-29T07:10:37.817Z,6.20
2022-12-29T07:13:04.935Z,6.10
2022-12-29T07:15:32.682Z,6.20
2022-12-29T07:18:04.083Z,6.20
2022-12-29T07:20:32.533Z,6.10
2022-12-29T07:23:03.562Z,6.10
2022-12-29T07:25:31.363Z,6.10
2022-12-29T07:27:58.208Z,6.10
2022-12-29T07:30:26.211Z,6.20
2022-12-29T07:32:53.173Z,6.30
2022-12-29T07:35:20.236Z,6.30
2022-12-29T07:37:47.168Z,6.30
2022-12-29T07:40:14.251Z,6.30
2022-12-29T07:42:41.059Z,6.40
2022-12-29T07:45:10.396Z,6.30
2022-12-29T07:47:54.627Z,6.40
2022-12-29T07:50:21.354Z,6.40
2022-12-29T07:52:50.664Z,6.30
2022-12-29T07:55:19.901Z,6.40
2022-12-29T07:57:46.979Z,6.30
2022-12-29T08:00:14.606Z,6.40
2022-12-29T08:02:41.490Z,6.50
2022-12-29T08:05:08.589Z,6.80
2022-12-29T08:07:35.397Z,6.60
2022-12-29T08:10:02.556Z,6.80
2022-12-29T08:12:29.706Z,6.80
2022-12-29T08:14:56.574Z,6.90
2022-12-29T08:17:23.472Z,7.00
2022-12-29T08:19:50.298Z,7.10
2022-12-29T08:22:17.477Z,7.10
2022-12-29T08:24:46.451Z,7.10
2022-12-29T08:27:18.054Z,7.00
2022-12-29T08:29:49.719Z,7.20
2022-12-29T08:32:19.317Z,7.30
2022-12-29T08:34:46.366Z,7.40
2022-12-29T08:37:13.355Z,7.50
2022-12-29T08:39:40.469Z,7.50
2022-12-29T08:42:07.302Z,7.60
2022-12-29T08:44:34.216Z,7.70
2022-12-29T08:47:01.127Z,7.80
2022-12-29T08:49:27.898Z,7.90
2022-12-29T08:51:54.614Z,8.10
2022-12-29T08:54:21.684Z,8.00
2022-12-29T08:56:48.619Z,8.10
2022-12-29T08:59:16.813Z,8.00
2022-12-29T09:01:46.269Z,8.20
2022-12-29T09:04:15.418Z,8.40
2022-12-29T09:06:46.867Z,8.30
2022-12-29T09:09:14.020Z,8.40
2022-12-29T09:11:40.901Z,8.40
2022-12-29T09:14:08.349Z,8.40
2022-12-29T09:16:35.813Z,8.20
2022-12-29T09:19:03.537Z,8.20
2022-12-29T09:21:31.199Z,8.00
2022-12-29T09:24:00.221Z,7.80
2022-12-29T09:26:27.924Z,7.50
2022-12-29T09:28:55.079Z,7.30
2022-12-29T09:31:21.916Z,7.30
2022-12-29T09:33:48.849Z,7.30
2022-12-29T09:36:15.646Z,7.20
2022-12-29T09:38:42.955Z,7.10
2022-12-29T09:41:32.181Z,7.20
2022-12-29T09:44:12.566Z,7.10
2022-12-29T09:46:44.884Z,7.20
2022-12-29T09:49:29.509Z,7.50
2022-12-29T09:52:04.790Z,7.70
2022-12-29T09:55:00.544Z,7.90
2022-12-29T09:57:55.495Z,8.00
2022-12-29T10:00:29.278Z,8.10
2022-12-29T10:03:04.061Z,8.20
2022-12-29T10:05:47.849Z,8.20
2022-12-29T10:08:19.906Z,8.10
2022-12-29T10:11:08.258Z,8.10
2022-12-29T10:14:04.726Z,8.10
2022-12-29T10:17:11.049Z,8.00
2022-12-29T10:19:56.721Z,8.00
2022-12-29T10:22:48.744Z,7.80
2022-12-29T10:25:21.703Z,7.70
2022-12-29T10:27:54.385Z,7.60
2022-12-29T10:30:23.339Z,7.50
2022-12-29T10:32:56.052Z,7.40
2022-12-29T10:35:31.127Z,7.50
2022-12-29T10:38:23.612Z,7.70
2022-12-29T10:41:04.219Z,7.80
2022-12-29T10:43:32.669Z,7.80
2022-12-29T10:46:11.645Z,7.90
2022-12-29T10:48:39.522Z,8.00
2022-12-29T10:51:09.353Z,8.10
2022-12-29T10:53:58.822Z,8.30
2022-12-29T10:56:37.250Z,8.50
2022-12-29T10:59:25.993Z,8.70
2022-12-29T11:02:15.410Z,8.80
2022-12-29T11:05:03.421Z,9.00
2022-12-29T11:07:35.311Z,9.10
2022-12-29T11:10:19.067Z,9.00
2022-12-29T11:13:11.820Z,9.00
2022-12-29T11:15:47.296Z,9.20
2022-12-29T11:18:40.668Z,9.20
2022-12-29T11:21:33.811Z,9.00
2022-12-29T11:24:09.275Z,8.90
2022-12-29T11:26:36.213Z,8.90
2022-12-29T11:29:08.933Z,8.80
2022-12-29T11:31:51.052Z,8.90
2022-12-29T11:34:38.109Z,9.00
2022-12-29T11:37:12.665Z,9.10
2022-12-29T11:39:51.939Z,9.20
2022-12-29T11:42:23.399Z,9.20
2022-12-29T11:44:52.360Z,9.20
2022-12-29T11:47:30.075Z,9.10
2022-12-29T11:50:07.300Z,9.10
2022-12-29T11:52:38.856Z,9.00
2022-12-29T11:55:17.393Z,8.90
2022-12-29T11:57:45.291Z,8.90
2022-12-29T12:00:25.869Z,9.00
2022-12-29T12:03:07.333Z,9.20
2022-12-29T12:05:46.371Z,9.20
2022-12-29T12:08:21.226Z,9.40
2022-12-29T12:11:07.018Z,9.40
2022-12-29T12:13:43.283Z,9.40
2022-12-29T12:16:20.364Z,9.20
2022-12-29T12:19:04.187Z,9.10
2022-12-29T12:21:56.248Z,9.10
2022-12-29T12:24:35.081Z,9.10
2022-12-29T12:27:25.500Z,9.10
2022-12-29T12:30:11.490Z,9.10
2022-12-29T12:32:58.824Z,9.10
2022-12-29T12:35:48.101Z,9.10
2022-12-29T12:38:25.105Z,9.00
2022-12-29T12:40:59.003Z,9.00
2022-12-29T12:43:28.565Z,9.00
2022-12-29T12:46:36.839Z,9.00
2022-12-29T12:49:22.276Z,8.90
2022-12-29T12:52:36.827Z,9.10
2022-12-29T12:55:21.921Z,9.50
2022-12-29T12:58:17.930Z,9.80
2022-12-29T13:01:08.919Z,9.90
2022-12-29T13:04:04.616Z,9.60
2022-12-29T13:06:52.434Z,9.40
2022-12-29T13:09:26.552Z,9.00
2022-12-29T13:12:26.444Z,8.90
2022-12-29T13:15:20.242Z,8.70
2022-12-29T13:18:04.681Z,8.70
2022-12-29T13:20:46.634Z,8.80
2022-12-29T13:23:40.601Z,8.90
2022-12-29T13:26:23.728Z,9.00
2022-12-29T13:29:00.874Z,9.00
2022-12-29T13:31:46.558Z,8.90
2022-12-29T13:34:13.320Z,9.00
2022-12-29T13:36:58.040Z,9.00
2022-12-29T13:39:42.093Z,9.00
2022-12-29T13:42:09.893Z,9.10
2022-12-29T13:44:52.122Z,9.10
2022-12-29T13:47:29.553Z,9.20
2022-12-29T13:50:01.220Z,9.10
2022-12-29T13:52:57.136Z,9.20
2022-12-29T13:55:35.934Z,9.10
2022-12-29T13:58:11.398Z,8.90
2022-12-29T14:01:06.914Z,8.80
2022-12-29T14:03:56.512Z,8.90
2022-12-29T14:06:38.079Z,8.90
2022-12-29T14:09:33.457Z,8.80
2022-12-29T14:12:02.527Z,8.80
2022-12-29T14:14:32.685Z,8.70
2022-12-29T14:17:15.172Z,8.60
2022-12-29T14:19:44.760Z,8.40
2022-12-29T14:22:28.875Z,8.40
2022-12-29T14:24:59.395Z,8.30
2022-12-29T14:27:29.525Z,8.30
2022-12-29T14:29:56.404Z,8.20
2022-12-29T14:32:26.285Z,8.20
2022-12-29T14:34:58.067Z,8.10
2022-12-29T14:37:32.081Z,8.00
2022-12-29T14:40:04.783Z,8.00
2022-12-29T14:42:33.337Z,8.00
2022-12-29T14:45:00.308Z,7.90
2022-12-29T14:47:31.022Z,7.90
2022-12-29T14:50:23.185Z,7.90
2022-12-29T14:53:00.076Z,7.80
2022-12-29T14:55:55.896Z,7.70
2022-12-29T14:58:31.064Z,7.80
2022-12-29T15:00:59.244Z,7.70
2022-12-29T15:03:46.269Z,7.60
2022-12-29T15:06:19.795Z,7.40
2022-12-29T15:08:53.661Z,7.30
2022-12-29T15:11:25.662Z,7.20
2022-12-29T15:13:52.576Z,7.10
2022-12-29T15:16:30.270Z,7.10
2022-12-29T15:18:58.803Z,7.10
2022-12-29T15:21:30.570Z,7.00
2022-12-29T15:23:58.373Z,7.00
2022-12-29T15:26:41.183Z,7.00
2022-12-29T15:29:26.933Z,7.00
2022-12-29T15:31:53.958Z,6.90
2022-12-29T15:34:22.655Z,6.90
2022-12-29T15:36:51.752Z,6.90
2022-12-29T15:39:33.390Z,6.80
2022-12-29T15:42:26.316Z,6.80
2022-12-29T15:45:09.332Z,6.70
2022-12-29T15:47:37.073Z,6.60
2022-12-29T15:50:20.584Z,6.50
2022-12-29T15:52:47.515Z,6.40
2022-12-29T15:55:29.218Z,6.30
2022-12-29T15:58:01.397Z,6.30
2022-12-29T16:00:33.737Z,6.30
2022-12-29T16:03:04.269Z,6.30
2022-12-29T16:05:40.143Z,6.20
2022-12-29T16:08:31.105Z,6.00
2022-12-29T16:11:03.020Z,6.00
2022-12-29T16:13:40.417Z,5.90
2022-12-29T16:16:19.109Z,5.90
2022-12-29T16:18:53.436Z,5.80
2022-12-29T16:21:32.918Z,5.70
2022-12-29T16:24:10.138Z,5.60
2022-12-29T16:26:37.297Z,5.60
2022-12-29T16:29:07.449Z,5.60
2022-12-29T16:31:48.238Z,5.50
2022-12-29T16:34:38.638Z,5.40
2022-12-29T16:37:25.252Z,5.30
2022-12-29T16:39:52.178Z,5.30
2022-12-29T16:42:51.263Z,5.30
2022-12-29T16:45:24.573Z,5.30
2022-12-29T16:48:06.701Z,5.30
2022-12-29T16:50:40.988Z,5.30
2022-12-29T16:53:36.550Z,5.20
2022-12-29T16:56:13.583Z,5.30
2022-12-29T16:58:48.824Z,5.40
2022-12-29T17:01:20.550Z,5.40
2022-12-29T17:03:53.893Z,5.50
2022-12-29T17:06:22.739Z,5.50
2022-12-29T17:08:53.743Z,5.50
2022-12-29T17:11:43.135Z,5.50
2022-12-29T17:14:37.559Z,5.40
2022-12-29T17:17:11.653Z,5.30
2022-12-29T17:19:39.695Z,5.30
2022-12-29T17:22:27.495Z,5.20
2022-12-29T17:24:57.061Z,5.00
2022-12-29T17:27:29.136Z,4.90
2022-12-29T17:30:03.686Z,4.80
2022-12-29T17:32:31.132Z,4.70
2022-12-29T17:35:25.161Z,4.50
2022-12-29T17:37:53.086Z,4.50
2022-12-29T17:40:26.533Z,4.40
2022-12-29T17:43:01.218Z,4.40
2022-12-29T17:45:39.107Z,4.50
2022-12-29T17:48:13.133Z,4.40
2022-12-29T17:50:40.772Z,4.30
2022-12-29T17:53:13.715Z,4.40
2022-12-29T17:55:41.079Z,4.40
2022-12-29T17:58:24.647Z,4.30
2022-12-29T18:00:57.540Z,4.30
2022-12-29T18:03:34.190Z,4.20
2022-12-29T18:06:02.292Z,4.10
2022-12-29T18:08:31.064Z,4.10
2022-12-29T18:10:58.805Z,4.10
2022-12-29T18:13:43.597Z,4.00
2022-12-29T18:16:14.927Z,4.00
2022-12-29T18:18:41.832Z,3.90
2022-12-29T18:21:18.507Z,3.90
2022-12-29T18:23:45.852Z,4.00
2022-12-29T18:26:27.388Z,3.90
2022-12-29T18:28:55.983Z,3.80
2022-12-29T18:31:27.690Z,3.90
2022-12-29T18:33:56.151Z,3.80
2022-12-29T18:36:23.409Z,3.80
2022-12-29T18:38:54.904Z,3.90
2022-12-29T18:41:25.965Z,3.90
2022-12-29T18:43:54.046Z,3.90
2022-12-29T18:46:23.440Z,3.80
2022-12-29T18:48:51.606Z,3.90
2022-12-29T18:51:21.990Z,3.90
2022-12-29T18:53:49.378Z,3.80
2022-12-29T18:56:16.417Z,3.70
2022-12-29T18:58:45.433Z,3.50
2022-12-29T19:01:27.738Z,3.60
2022-12-29T19:03:54.977Z,3.60
2022-12-29T19:06:22.239Z,3.70
2022-12-29T19:08:49.575Z,3.60
2022-12-29T19:11:18.621Z,3.60
2022-12-29T19:13:47.675Z,3.70
2022-12-29T19:16:19.924Z,3.60
2022-12-29T19:18:53.622Z,3.50
2022-12-29T19:21:31.865Z,3.50
2022-12-29T19:23:58.895Z,3.50
2022-12-29T19:26:35.995Z,3.50
2022-12-29T19:29:11.732Z,3.40
2022-12-29T19:31:39.328Z,3.30
2022-12-29T19:34:06.375Z,3.30
2022-12-29T19:36:34.099Z,3.40
2022-12-29T19:39:00.990Z,3.30
2022-12-29T19:41:27.907Z,3.30
2022-12-29T19:43:54.735Z,3.30
2022-12-29T19:46:22.062Z,3.30
2022-12-29T19:48:52.232Z,3.30
2022-12-29T19:51:19.159Z,3.30
2022-12-29T19:53:46.765Z,3.30
2022-12-29T19:56:14.968Z,3.30
2022-12-29T19:58:47.564Z,3.20
2022-12-29T20:01:18.347Z,3.20
2022-12-29T20:03:49.061Z,3.10
2022-12-29T20:06:16.635Z,3.10
2022-12-29T20:08:47.661Z,3.00
2022-12-29T20:11:16.958Z,2.90
2022-12-29T20:13:45.001Z,3.00
2022-12-29T20:16:17.081Z,3.10
2022-12-29T20:18:47.273Z,3.20
2022-12-29T20:21:24.945Z,3.20
2022-12-29T20:23:53.003Z,3.20
2022-12-29T20:26:28.642Z,3.20
2022-12-29T20:28:57.690Z,3.30
2022-12-29T20:31:27.535Z,3.50
2022-12-29T20:33:54.469Z,3.50
2022-12-29T20:36:28.927Z,3.40
2022-12-29T20:39:01.162Z,3.50
2022-12-29T20:41:28.479Z,3.40
2022-12-29T20:43:58.324Z,3.50
2022-12-29T20:46:32.792Z,3.40
2022-12-29T20:49:01.131Z,3.40
2022-12-29T20:51:59.255Z,3.20
2022-12-29T20:54:22.075Z,3.00
2022-12-29T20:56:50.003Z,3.00
2022-12-29T20:59:27.299Z,2.90
2022-12-29T21:01:58.178Z,3.10
2022-12-29T21:04:25.429Z,3.30
2022-12-29T21:06:52.542Z,3.10
2022-12-29T21:09:21.572Z,2.90
2022-12-29T21:11:48.708Z,2.80
2022-12-29T21:14:15.617Z,2.70
2022-12-29T21:16:42.616Z,2.50
2022-12-29T21:19:09.522Z,2.40
2022-12-29T21:21:39.186Z,2.40
2022-12-29T21:24:10.626Z,2.30
2022-12-29T21:26:37.403Z,2.50
2022-12-29T21:29:04.395Z,2.60
2022-12-29T21:31:34.543Z,2.80
2022-12-29T21:34:03.448Z,2.90
2022-12-29T21:36:33.196Z,2.90
2022-12-29T21:39:00.958Z,3.10
2022-12-29T21:41:29.957Z,3.00
2022-12-29T21:44:19.933Z,2.90
2022-12-29T21:46:52.702Z,2.90
2022-12-29T21:49:20.084Z,2.90
2022-12-29T21:51:57.429Z,3.20
2022-12-29T21:54:47.767Z,3.50
2022-12-29T21:57:36.996Z,3.70
2022-12-29T22:00:27.435Z,3.80
2022-12-29T22:03:21.925Z,3.90
2022-12-29T22:06:10.558Z,3.90
2022-12-29T22:08:56.800Z,3.80
2022-12-29T22:11:42.391Z,3.90
2022-12-29T22:14:09.703Z,3.80
2022-12-29T22:16:36.628Z,3.70
2022-12-29T22:19:04.430Z,3.60
2022-12-29T22:21:33.015Z,3.30
2022-12-29T22:24:01.486Z,3.00
2022-12-29T22:26:28.772Z,2.70
2022-12-29T22:28:56.042Z,2.50
2022-12-29T22:31:27.432Z,2.30
2022-12-29T22:34:00.052Z,2.30
2022-12-29T22:36:28.570Z,2.50
2022-12-29T22:38:55.487Z,2.70
2022-12-29T22:41:22.416Z,2.90
2022-12-29T22:43:49.755Z,3.10
2022-12-29T22:46:16.559Z,3.00
2022-12-29T22:48:43.366Z,3.10
2022-12-29T22:51:10.468Z,3.00
2022-12-29T22:53:37.515Z,2.90
2022-12-29T22:56:10.692Z,2.90
2022-12-29T22:58:45.554Z,3.00
2022-12-29T23:01:15.248Z,2.90
2022-12-29T23:03:46.056Z,2.80
2022-12-29T23:06:16.363Z,3.00
2022-12-29T23:08:44.115Z,3.00
2022-12-29T23:11:12.580Z,3.10
2022-12-29T23:13:41.277Z,3.10
2022-12-29T23:16:10.541Z,3.20
2022-12-29T23:18:37.438Z,3.40
2022-12-29T23:21:05.219Z,3.60
2022-12-29T23:23:51.265Z,3.60
2022-12-29T23:26:20.216Z,3.60
2022-12-29T23:28:48.138Z,3.70
2022-12-29T23:31:18.283Z,3.70
2022-12-29T23:33:45.346Z,3.70
2022-12-29T23:36:12.723Z,3.60
2022-12-29T23:38:41.986Z,3.60
2022-12-29T23:41:09.503Z,3.50
2022-12-29T23:43:36.695Z,3.50
2022-12-29T23:46:11.779Z,3.50
2022-12-29T23:48:38.782Z,3.20
2022-12-29T23:51:09.057Z,2.90
2022-12-29T23:53:37.752Z,2.80
2022-12-29T23:56:08.176Z,3.00
2022-12-29T23:58:35.814Z,3.00
